sensor_id;sensor_type;location;lat;lon;timestamp;temperature;humidity
21522;DHT22;10922;45.572;10.002;2023-05-10T00:00:14;14.20;1.00
21522;DHT22;10922;45.572;10.002;2023-05-10T00:02:40;14.20;1.00
21522;DHT22;10922;45.572;10.002;2023-05-10T00:05:06;14.20;1.00
21522;DHT22;10922;45.572;10.002;2023-05-10T00:07:32;14.20;1.00
21522;DHT22;10922;45.572;10.002;2023-05-10T00:09:57;14.20;1.00
21522;DHT22;10922;45.572;10.002;2023-05-10T00:12:23;14.20;1.00
21522;DHT22;10922;45.572;10.002;2023-05-10T00:14:49;14.10;99.90
21522;DHT22;10922;45.572;10.002;2023-05-10T00:17:14;14.20;99.90
21522;DHT22;10922;45.572;10.002;2023-05-10T00:19:40;14.10;1.00
21522;DHT22;10922;45.572;10.002;2023-05-10T00:22:06;14.10;1.00
21522;DHT22;10922;45.572;10.002;2023-05-10T00:24:31;14.10;1.00
21522;DHT22;10922;45.572;10.002;2023-05-10T00:26:57;14.20;1.00
21522;DHT22;10922;45.572;10.002;2023-05-10T00:29:22;14.20;1.00
21522;DHT22;10922;45.572;10.002;2023-05-10T00:31:48;14.10;1.00
21522;DHT22;10922;45.572;10.002;2023-05-10T00:34:14;14.10;1.00
21522;DHT22;10922;45.572;10.002;2023-05-10T00:36:40;14.00;1.00
21522;DHT22;10922;45.572;10.002;2023-05-10T00:39:06;14.00;1.00
21522;DHT22;10922;45.572;10.002;2023-05-10T00:41:31;14.10;1.00
21522;DHT22;10922;45.572;10.002;2023-05-10T00:43:58;14.00;1.00
21522;DHT22;10922;45.572;10.002;2023-05-10T00:46:25;13.90;1.00
21522;DHT22;10922;45.572;10.002;2023-05-10T00:48:51;14.00;1.00
21522;DHT22;10922;45.572;10.002;2023-05-10T00:51:17;14.00;1.00
21522;DHT22;10922;45.572;10.002;2023-05-10T00:53:45;14.00;1.00
21522;DHT22;10922;45.572;10.002;2023-05-10T00:56:11;14.00;1.00
21522;DHT22;10922;45.572;10.002;2023-05-10T00:58:38;14.10;1.00
21522;DHT22;10922;45.572;10.002;2023-05-10T01:01:04;14.00;1.00
21522;DHT22;10922;45.572;10.002;2023-05-10T01:03:31;13.90;1.00
21522;DHT22;10922;45.572;10.002;2023-05-10T01:05:57;13.90;1.00
21522;DHT22;10922;45.572;10.002;2023-05-10T01:08:23;14.00;1.00
21522;DHT22;10922;45.572;10.002;2023-05-10T01:10:49;13.90;1.00
21522;DHT22;10922;45.572;10.002;2023-05-10T01:13:38;14.00;1.00
21522;DHT22;10922;45.572;10.002;2023-05-10T01:16:05;13.90;1.00
21522;DHT22;10922;45.572;10.002;2023-05-10T01:18:36;13.90;1.00
21522;DHT22;10922;45.572;10.002;2023-05-10T01:21:38;14.00;1.00
21522;DHT22;10922;45.572;10.002;2023-05-10T01:32:24;14.10;1.00
21522;DHT22;10922;45.572;10.002;2023-05-10T01:35:16;14.10;1.00
21522;DHT22;10922;45.572;10.002;2023-05-10T01:40:28;14.10;1.00
21522;DHT22;10922;45.572;10.002;2023-05-10T01:43:01;14.10;1.00
21522;DHT22;10922;45.572;10.002;2023-05-10T01:45:38;13.90;1.00
21522;DHT22;10922;45.572;10.002;2023-05-10T01:48:10;14.00;1.00
21522;DHT22;10922;45.572;10.002;2023-05-10T01:50:41;13.90;1.00
21522;DHT22;10922;45.572;10.002;2023-05-10T01:53:09;13.90;1.00
21522;DHT22;10922;45.572;10.002;2023-05-10T01:55:42;13.90;1.00
21522;DHT22;10922;45.572;10.002;2023-05-10T01:58:14;13.90;1.00
21522;DHT22;10922;45.572;10.002;2023-05-10T02:00:43;13.90;1.00
21522;DHT22;10922;45.572;10.002;2023-05-10T02:03:10;14.00;1.00
21522;DHT22;10922;45.572;10.002;2023-05-10T02:05:37;13.90;1.00
21522;DHT22;10922;45.572;10.002;2023-05-10T02:08:06;14.00;1.00
21522;DHT22;10922;45.572;10.002;2023-05-10T02:10:35;14.00;1.00
21522;DHT22;10922;45.572;10.002;2023-05-10T02:13:02;14.00;1.00
21522;DHT22;10922;45.572;10.002;2023-05-10T02:15:28;14.00;1.00
21522;DHT22;10922;45.572;10.002;2023-05-10T02:17:55;14.00;1.00
21522;DHT22;10922;45.572;10.002;2023-05-10T02:20:24;13.90;1.00
21522;DHT22;10922;45.572;10.002;2023-05-10T02:22:52;13.90;1.00
21522;DHT22;10922;45.572;10.002;2023-05-10T02:25:21;13.90;1.00
21522;DHT22;10922;45.572;10.002;2023-05-10T02:27:48;13.90;1.00
21522;DHT22;10922;45.572;10.002;2023-05-10T02:30:14;13.90;1.00
21522;DHT22;10922;45.572;10.002;2023-05-10T02:32:41;13.80;1.00
21522;DHT22;10922;45.572;10.002;2023-05-10T02:35:08;13.80;1.00
21522;DHT22;10922;45.572;10.002;2023-05-10T02:37:36;13.90;1.00
21522;DHT22;10922;45.572;10.002;2023-05-10T02:40:03;13.80;1.00
21522;DHT22;10922;45.572;10.002;2023-05-10T02:42:32;13.80;1.00
21522;DHT22;10922;45.572;10.002;2023-05-10T02:45:02;13.70;1.00
21522;DHT22;10922;45.572;10.002;2023-05-10T02:47:29;13.70;1.00
21522;DHT22;10922;45.572;10.002;2023-05-10T02:49:55;13.70;1.00
21522;DHT22;10922;45.572;10.002;2023-05-10T02:52:27;13.70;1.00
21522;DHT22;10922;45.572;10.002;2023-05-10T02:54:56;13.70;1.00
21522;DHT22;10922;45.572;10.002;2023-05-10T02:57:27;13.70;1.00
21522;DHT22;10922;45.572;10.002;2023-05-10T02:59:54;13.70;1.00
21522;DHT22;10922;45.572;10.002;2023-05-10T03:02:20;13.70;1.00
21522;DHT22;10922;45.572;10.002;2023-05-10T03:04:46;13.70;1.00
21522;DHT22;10922;45.572;10.002;2023-05-10T03:07:12;13.60;1.00
21522;DHT22;10922;45.572;10.002;2023-05-10T03:09:39;13.60;1.00
21522;DHT22;10922;45.572;10.002;2023-05-10T03:12:38;13.60;1.00
21522;DHT22;10922;45.572;10.002;2023-05-10T03:15:17;13.60;1.00
21522;DHT22;10922;45.572;10.002;2023-05-10T03:18:06;13.60;1.00
21522;DHT22;10922;45.572;10.002;2023-05-10T03:20:41;13.60;1.00
21522;DHT22;10922;45.572;10.002;2023-05-10T03:25:42;13.50;1.00
21522;DHT22;10922;45.572;10.002;2023-05-10T03:28:09;13.50;1.00
21522;DHT22;10922;45.572;10.002;2023-05-10T03:30:35;13.50;1.00
21522;DHT22;10922;45.572;10.002;2023-05-10T03:33:07;13.50;1.00
21522;DHT22;10922;45.572;10.002;2023-05-10T03:35:33;13.50;1.00
21522;DHT22;10922;45.572;10.002;2023-05-10T03:37:59;13.50;1.00
21522;DHT22;10922;45.572;10.002;2023-05-10T03:40:26;13.40;1.00
21522;DHT22;10922;45.572;10.002;2023-05-10T03:42:54;13.40;1.00
21522;DHT22;10922;45.572;10.002;2023-05-10T03:45:20;13.40;1.00
21522;DHT22;10922;45.572;10.002;2023-05-10T03:47:46;13.40;1.00
21522;DHT22;10922;45.572;10.002;2023-05-10T03:50:13;13.50;1.00
21522;DHT22;10922;45.572;10.002;2023-05-10T03:52:39;13.50;1.00
21522;DHT22;10922;45.572;10.002;2023-05-10T03:55:05;13.50;1.00
21522;DHT22;10922;45.572;10.002;2023-05-10T03:57:31;13.40;1.00
21522;DHT22;10922;45.572;10.002;2023-05-10T03:59:57;13.50;1.00
21522;DHT22;10922;45.572;10.002;2023-05-10T04:02:23;13.50;1.00
21522;DHT22;10922;45.572;10.002;2023-05-10T04:04:49;13.50;1.00
21522;DHT22;10922;45.572;10.002;2023-05-10T04:07:15;13.50;1.00
21522;DHT22;10922;45.572;10.002;2023-05-10T04:09:41;13.50;1.00
21522;DHT22;10922;45.572;10.002;2023-05-10T04:12:07;13.50;1.00
21522;DHT22;10922;45.572;10.002;2023-05-10T04:14:33;13.50;1.00
21522;DHT22;10922;45.572;10.002;2023-05-10T04:16:58;13.50;1.00
21522;DHT22;10922;45.572;10.002;2023-05-10T04:19:28;13.50;1.00
21522;DHT22;10922;45.572;10.002;2023-05-10T04:21:54;13.50;1.00
21522;DHT22;10922;45.572;10.002;2023-05-10T04:24:19;13.50;1.00
21522;DHT22;10922;45.572;10.002;2023-05-10T04:26:45;13.50;1.00
21522;DHT22;10922;45.572;10.002;2023-05-10T04:29:11;13.50;1.00
21522;DHT22;10922;45.572;10.002;2023-05-10T04:31:36;13.50;1.00
21522;DHT22;10922;45.572;10.002;2023-05-10T04:34:02;13.50;1.00
21522;DHT22;10922;45.572;10.002;2023-05-10T04:36:28;13.40;1.00
21522;DHT22;10922;45.572;10.002;2023-05-10T04:38:54;13.50;1.00
21522;DHT22;10922;45.572;10.002;2023-05-10T04:41:20;13.50;1.00
21522;DHT22;10922;45.572;10.002;2023-05-10T04:43:46;13.50;1.00
21522;DHT22;10922;45.572;10.002;2023-05-10T04:46:11;13.50;1.00
21522;DHT22;10922;45.572;10.002;2023-05-10T04:48:37;13.50;1.00
21522;DHT22;10922;45.572;10.002;2023-05-10T04:51:03;13.60;1.00
21522;DHT22;10922;45.572;10.002;2023-05-10T04:53:29;13.50;1.00
21522;DHT22;10922;45.572;10.002;2023-05-10T04:55:55;13.60;1.00
21522;DHT22;10922;45.572;10.002;2023-05-10T04:58:21;13.60;1.00
21522;DHT22;10922;45.572;10.002;2023-05-10T05:00:46;13.60;1.00
21522;DHT22;10922;45.572;10.002;2023-05-10T05:03:12;13.60;1.00
21522;DHT22;10922;45.572;10.002;2023-05-10T05:05:38;13.60;1.00
21522;DHT22;10922;45.572;10.002;2023-05-10T05:08:04;13.60;1.00
21522;DHT22;10922;45.572;10.002;2023-05-10T05:10:30;13.60;1.00
21522;DHT22;10922;45.572;10.002;2023-05-10T05:12:55;13.60;1.00
21522;DHT22;10922;45.572;10.002;2023-05-10T05:15:21;13.60;1.00
21522;DHT22;10922;45.572;10.002;2023-05-10T05:17:47;13.60;1.00
21522;DHT22;10922;45.572;10.002;2023-05-10T05:20:12;13.40;1.00
21522;DHT22;10922;45.572;10.002;2023-05-10T05:22:38;13.30;1.00
21522;DHT22;10922;45.572;10.002;2023-05-10T05:25:04;13.30;1.00
21522;DHT22;10922;45.572;10.002;2023-05-10T05:27:31;13.30;1.00
21522;DHT22;10922;45.572;10.002;2023-05-10T05:29:57;13.30;1.00
21522;DHT22;10922;45.572;10.002;2023-05-10T05:32:24;13.30;1.00
21522;DHT22;10922;45.572;10.002;2023-05-10T05:34:50;13.20;1.00
21522;DHT22;10922;45.572;10.002;2023-05-10T05:37:18;13.20;1.00
21522;DHT22;10922;45.572;10.002;2023-05-10T05:39:44;13.30;1.00
21522;DHT22;10922;45.572;10.002;2023-05-10T05:42:11;13.40;1.00
21522;DHT22;10922;45.572;10.002;2023-05-10T05:44:38;13.20;1.00
21522;DHT22;10922;45.572;10.002;2023-05-10T05:47:05;13.20;1.00
21522;DHT22;10922;45.572;10.002;2023-05-10T05:49:30;13.30;1.00
21522;DHT22;10922;45.572;10.002;2023-05-10T05:52:00;13.30;1.00
21522;DHT22;10922;45.572;10.002;2023-05-10T05:54:27;13.30;1.00
21522;DHT22;10922;45.572;10.002;2023-05-10T05:57:00;13.30;1.00
21522;DHT22;10922;45.572;10.002;2023-05-10T05:59:26;13.30;1.00
21522;DHT22;10922;45.572;10.002;2023-05-10T06:01:52;13.30;1.00
21522;DHT22;10922;45.572;10.002;2023-05-10T06:04:18;13.30;1.00
21522;DHT22;10922;45.572;10.002;2023-05-10T06:06:44;13.20;1.00
21522;DHT22;10922;45.572;10.002;2023-05-10T06:09:10;13.20;1.00
21522;DHT22;10922;45.572;10.002;2023-05-10T06:11:36;13.20;1.00
21522;DHT22;10922;45.572;10.002;2023-05-10T06:14:03;13.30;1.00
21522;DHT22;10922;45.572;10.002;2023-05-10T06:16:34;13.40;1.00
21522;DHT22;10922;45.572;10.002;2023-05-10T06:18:59;13.60;1.00
21522;DHT22;10922;45.572;10.002;2023-05-10T06:21:25;13.60;1.00
21522;DHT22;10922;45.572;10.002;2023-05-10T06:23:51;13.60;1.00
21522;DHT22;10922;45.572;10.002;2023-05-10T06:26:17;13.50;1.00
21522;DHT22;10922;45.572;10.002;2023-05-10T06:28:42;13.50;1.00
21522;DHT22;10922;45.572;10.002;2023-05-10T06:31:08;13.60;1.00
21522;DHT22;10922;45.572;10.002;2023-05-10T06:33:34;13.50;1.00
21522;DHT22;10922;45.572;10.002;2023-05-10T06:36:00;13.70;1.00
21522;DHT22;10922;45.572;10.002;2023-05-10T06:38:26;13.60;1.00
21522;DHT22;10922;45.572;10.002;2023-05-10T06:40:52;13.60;1.00
21522;DHT22;10922;45.572;10.002;2023-05-10T06:43:17;13.60;1.00
21522;DHT22;10922;45.572;10.002;2023-05-10T06:45:43;13.60;1.00
21522;DHT22;10922;45.572;10.002;2023-05-10T06:48:09;13.40;1.00
21522;DHT22;10922;45.572;10.002;2023-05-10T06:50:35;13.50;1.00
21522;DHT22;10922;45.572;10.002;2023-05-10T06:53:00;13.50;1.00
21522;DHT22;10922;45.572;10.002;2023-05-10T06:55:27;13.50;1.00
21522;DHT22;10922;45.572;10.002;2023-05-10T06:57:53;13.50;1.00
21522;DHT22;10922;45.572;10.002;2023-05-10T07:00:19;13.50;1.00
21522;DHT22;10922;45.572;10.002;2023-05-10T07:02:46;13.50;1.00
21522;DHT22;10922;45.572;10.002;2023-05-10T07:05:12;13.50;1.00
21522;DHT22;10922;45.572;10.002;2023-05-10T07:07:38;13.60;1.00
21522;DHT22;10922;45.572;10.002;2023-05-10T07:10:06;13.50;1.00
21522;DHT22;10922;45.572;10.002;2023-05-10T07:12:32;13.60;1.00
21522;DHT22;10922;45.572;10.002;2023-05-10T07:14:58;13.70;1.00
21522;DHT22;10922;45.572;10.002;2023-05-10T07:17:24;13.70;1.00
21522;DHT22;10922;45.572;10.002;2023-05-10T07:19:50;13.60;1.00
21522;DHT22;10922;45.572;10.002;2023-05-10T07:22:16;13.70;1.00
21522;DHT22;10922;45.572;10.002;2023-05-10T07:24:42;13.70;1.00
21522;DHT22;10922;45.572;10.002;2023-05-10T07:27:08;13.80;1.00
21522;DHT22;10922;45.572;10.002;2023-05-10T07:29:34;13.80;1.00
21522;DHT22;10922;45.572;10.002;2023-05-10T07:32:01;13.80;1.00
21522;DHT22;10922;45.572;10.002;2023-05-10T07:34:27;13.90;1.00
21522;DHT22;10922;45.572;10.002;2023-05-10T07:36:54;13.80;1.00
21522;DHT22;10922;45.572;10.002;2023-05-10T07:39:19;13.90;1.00
21522;DHT22;10922;45.572;10.002;2023-05-10T07:41:48;13.80;1.00
21522;DHT22;10922;45.572;10.002;2023-05-10T07:44:14;13.80;1.00
21522;DHT22;10922;45.572;10.002;2023-05-10T07:46:39;13.90;1.00
21522;DHT22;10922;45.572;10.002;2023-05-10T07:49:05;14.00;1.00
21522;DHT22;10922;45.572;10.002;2023-05-10T07:51:31;13.90;1.00
21522;DHT22;10922;45.572;10.002;2023-05-10T07:53:57;13.90;1.00
21522;DHT22;10922;45.572;10.002;2023-05-10T07:58:55;13.80;1.00
21522;DHT22;10922;45.572;10.002;2023-05-10T08:01:22;14.00;1.00
21522;DHT22;10922;45.572;10.002;2023-05-10T08:03:48;14.00;1.00
21522;DHT22;10922;45.572;10.002;2023-05-10T08:06:14;14.00;1.00
21522;DHT22;10922;45.572;10.002;2023-05-10T08:08:41;14.00;1.00
21522;DHT22;10922;45.572;10.002;2023-05-10T08:11:06;14.00;1.00
21522;DHT22;10922;45.572;10.002;2023-05-10T08:13:32;14.10;1.00
21522;DHT22;10922;45.572;10.002;2023-05-10T08:15:58;14.10;1.00
21522;DHT22;10922;45.572;10.002;2023-05-10T08:18:23;14.10;1.00
21522;DHT22;10922;45.572;10.002;2023-05-10T08:20:50;14.20;1.00
21522;DHT22;10922;45.572;10.002;2023-05-10T08:23:15;14.30;1.00
21522;DHT22;10922;45.572;10.002;2023-05-10T08:25:41;14.50;1.00
21522;DHT22;10922;45.572;10.002;2023-05-10T08:28:07;14.40;1.00
21522;DHT22;10922;45.572;10.002;2023-05-10T08:30:32;14.60;1.00
21522;DHT22;10922;45.572;10.002;2023-05-10T08:32:58;14.60;1.00
21522;DHT22;10922;45.572;10.002;2023-05-10T08:35:24;14.70;1.00
21522;DHT22;10922;45.572;10.002;2023-05-10T08:37:51;14.70;1.00
21522;DHT22;10922;45.572;10.002;2023-05-10T08:40:19;14.80;1.00
21522;DHT22;10922;45.572;10.002;2023-05-10T08:42:59;15.00;1.00
21522;DHT22;10922;45.572;10.002;2023-05-10T08:45:27;15.10;1.00
21522;DHT22;10922;45.572;10.002;2023-05-10T08:47:59;15.20;1.00
21522;DHT22;10922;45.572;10.002;2023-05-10T08:50:27;15.40;1.00
21522;DHT22;10922;45.572;10.002;2023-05-10T08:52:54;15.50;1.00
21522;DHT22;10922;45.572;10.002;2023-05-10T08:55:21;15.70;1.00
21522;DHT22;10922;45.572;10.002;2023-05-10T08:57:49;15.80;1.00
21522;DHT22;10922;45.572;10.002;2023-05-10T09:00:15;15.80;1.00
21522;DHT22;10922;45.572;10.002;2023-05-10T09:02:42;15.60;1.00
21522;DHT22;10922;45.572;10.002;2023-05-10T09:05:08;15.60;1.00
21522;DHT22;10922;45.572;10.002;2023-05-10T09:07:35;15.50;1.00
21522;DHT22;10922;45.572;10.002;2023-05-10T09:10:02;15.60;1.00
21522;DHT22;10922;45.572;10.002;2023-05-10T09:12:29;15.60;1.00
21522;DHT22;10922;45.572;10.002;2023-05-10T09:14:55;15.50;1.00
21522;DHT22;10922;45.572;10.002;2023-05-10T09:17:24;15.40;1.00
21522;DHT22;10922;45.572;10.002;2023-05-10T09:19:57;15.50;1.00
21522;DHT22;10922;45.572;10.002;2023-05-10T09:22:23;15.70;1.00
21522;DHT22;10922;45.572;10.002;2023-05-10T09:25:09;15.90;1.00
21522;DHT22;10922;45.572;10.002;2023-05-10T09:27:37;15.70;1.00
21522;DHT22;10922;45.572;10.002;2023-05-10T09:30:04;15.90;1.00
21522;DHT22;10922;45.572;10.002;2023-05-10T09:32:41;16.00;99.90
21522;DHT22;10922;45.572;10.002;2023-05-10T09:37:33;15.90;99.90
21522;DHT22;10922;45.572;10.002;2023-05-10T09:39:59;15.70;1.00
21522;DHT22;10922;45.572;10.002;2023-05-10T09:42:24;15.50;1.00
21522;DHT22;10922;45.572;10.002;2023-05-10T09:44:50;15.40;1.00
21522;DHT22;10922;45.572;10.002;2023-05-10T09:47:19;15.30;1.00
21522;DHT22;10922;45.572;10.002;2023-05-10T09:49:49;15.20;1.00
21522;DHT22;10922;45.572;10.002;2023-05-10T09:52:16;15.30;1.00
21522;DHT22;10922;45.572;10.002;2023-05-10T09:54:51;15.50;1.00
21522;DHT22;10922;45.572;10.002;2023-05-10T09:57:22;15.80;1.00
21522;DHT22;10922;45.572;10.002;2023-05-10T09:59:48;16.00;1.00
21522;DHT22;10922;45.572;10.002;2023-05-10T10:02:15;15.80;99.90
21522;DHT22;10922;45.572;10.002;2023-05-10T10:04:41;15.80;99.90
21522;DHT22;10922;45.572;10.002;2023-05-10T10:07:07;16.10;99.90
21522;DHT22;10922;45.572;10.002;2023-05-10T10:09:34;16.30;99.90
21522;DHT22;10922;45.572;10.002;2023-05-10T10:12:01;16.60;99.90
21522;DHT22;10922;45.572;10.002;2023-05-10T10:14:27;16.40;99.90
21522;DHT22;10922;45.572;10.002;2023-05-10T10:16:53;16.30;99.90
21522;DHT22;10922;45.572;10.002;2023-05-10T10:19:20;16.30;99.90
21522;DHT22;10922;45.572;10.002;2023-05-10T10:21:49;16.60;99.90
21522;DHT22;10922;45.572;10.002;2023-05-10T10:24:15;16.60;99.90
21522;DHT22;10922;45.572;10.002;2023-05-10T10:26:42;16.70;99.90
21522;DHT22;10922;45.572;10.002;2023-05-10T10:32:12;17.10;99.90
21522;DHT22;10922;45.572;10.002;2023-05-10T10:34:43;17.40;99.90
21522;DHT22;10922;45.572;10.002;2023-05-10T10:37:09;17.00;99.90
21522;DHT22;10922;45.572;10.002;2023-05-10T10:39:35;17.00;99.90
21522;DHT22;10922;45.572;10.002;2023-05-10T10:42:02;17.30;99.90
21522;DHT22;10922;45.572;10.002;2023-05-10T10:55:19;16.40;99.90
21522;DHT22;10922;45.572;10.002;2023-05-10T10:57:55;16.30;99.90
21522;DHT22;10922;45.572;10.002;2023-05-10T11:00:32;16.00;99.90
21522;DHT22;10922;45.572;10.002;2023-05-10T11:03:06;15.90;99.90
21522;DHT22;10922;45.572;10.002;2023-05-10T11:08:11;15.80;99.90
21522;DHT22;10922;45.572;10.002;2023-05-10T11:10:37;15.80;99.90
21522;DHT22;10922;45.572;10.002;2023-05-10T11:13:08;15.80;99.90
21522;DHT22;10922;45.572;10.002;2023-05-10T11:15:38;15.40;99.90
21522;DHT22;10922;45.572;10.002;2023-05-10T11:18:24;15.50;99.90
21522;DHT22;10922;45.572;10.002;2023-05-10T11:21:10;15.60;99.90
21522;DHT22;10922;45.572;10.002;2023-05-10T11:26:07;16.10;99.90
21522;DHT22;10922;45.572;10.002;2023-05-10T11:28:40;15.90;99.90
21522;DHT22;10922;45.572;10.002;2023-05-10T11:31:06;15.70;99.90
21522;DHT22;10922;45.572;10.002;2023-05-10T11:33:42;15.60;99.90
21522;DHT22;10922;45.572;10.002;2023-05-10T11:36:14;15.30;99.90
21522;DHT22;10922;45.572;10.002;2023-05-10T11:38:40;14.90;1.00
21522;DHT22;10922;45.572;10.002;2023-05-10T11:41:09;14.80;1.00
21522;DHT22;10922;45.572;10.002;2023-05-10T11:43:37;14.80;1.00
21522;DHT22;10922;45.572;10.002;2023-05-10T11:46:11;14.50;1.00
21522;DHT22;10922;45.572;10.002;2023-05-10T11:48:39;14.70;1.00
21522;DHT22;10922;45.572;10.002;2023-05-10T11:51:06;14.40;1.00
21522;DHT22;10922;45.572;10.002;2023-05-10T11:53:32;14.20;1.00
21522;DHT22;10922;45.572;10.002;2023-05-10T11:56:09;14.00;1.00
21522;DHT22;10922;45.572;10.002;2023-05-10T11:58:36;14.20;1.00
21522;DHT22;10922;45.572;10.002;2023-05-10T12:01:03;14.40;1.00
21522;DHT22;10922;45.572;10.002;2023-05-10T12:03:29;14.60;1.00
21522;DHT22;10922;45.572;10.002;2023-05-10T12:05:56;14.90;1.00
21522;DHT22;10922;45.572;10.002;2023-05-10T12:08:24;15.00;1.00
21522;DHT22;10922;45.572;10.002;2023-05-10T12:10:50;15.30;1.00
21522;DHT22;10922;45.572;10.002;2023-05-10T12:13:17;15.10;1.00
21522;DHT22;10922;45.572;10.002;2023-05-10T12:15:43;15.40;1.00
21522;DHT22;10922;45.572;10.002;2023-05-10T12:18:14;16.10;1.00
21522;DHT22;10922;45.572;10.002;2023-05-10T12:20:47;15.80;1.00
21522;DHT22;10922;45.572;10.002;2023-05-10T12:23:13;15.80;1.00
21522;DHT22;10922;45.572;10.002;2023-05-10T12:25:39;16.20;1.00
21522;DHT22;10922;45.572;10.002;2023-05-10T12:28:07;15.80;99.90
21522;DHT22;10922;45.572;10.002;2023-05-10T12:30:34;15.50;99.90
21522;DHT22;10922;45.572;10.002;2023-05-10T12:35:38;16.00;99.90
21522;DHT22;10922;45.572;10.002;2023-05-10T12:41:04;16.00;99.90
21522;DHT22;10922;45.572;10.002;2023-05-10T12:43:30;16.30;99.90
21522;DHT22;10922;45.572;10.002;2023-05-10T12:45:56;15.80;99.90
21522;DHT22;10922;45.572;10.002;2023-05-10T12:48:22;15.80;99.90
21522;DHT22;10922;45.572;10.002;2023-05-10T12:50:48;15.60;99.90
21522;DHT22;10922;45.572;10.002;2023-05-10T12:53:14;15.50;99.90
21522;DHT22;10922;45.572;10.002;2023-05-10T12:55:44;15.60;99.90
21522;DHT22;10922;45.572;10.002;2023-05-10T12:58:10;15.50;99.90
21522;DHT22;10922;45.572;10.002;2023-05-10T13:00:36;15.70;99.90
21522;DHT22;10922;45.572;10.002;2023-05-10T13:03:04;15.60;99.90
21522;DHT22;10922;45.572;10.002;2023-05-10T13:05:32;15.60;99.90
21522;DHT22;10922;45.572;10.002;2023-05-10T13:07:57;15.70;99.90
21522;DHT22;10922;45.572;10.002;2023-05-10T13:10:23;15.30;99.90
21522;DHT22;10922;45.572;10.002;2023-05-10T13:12:49;15.30;99.90
21522;DHT22;10922;45.572;10.002;2023-05-10T13:15:14;15.10;99.90
21522;DHT22;10922;45.572;10.002;2023-05-10T13:17:40;14.90;99.90
21522;DHT22;10922;45.572;10.002;2023-05-10T13:20:08;15.00;1.00
21522;DHT22;10922;45.572;10.002;2023-05-10T13:22:35;15.20;1.00
21522;DHT22;10922;45.572;10.002;2023-05-10T13:25:01;15.20;1.00
21522;DHT22;10922;45.572;10.002;2023-05-10T13:27:27;15.50;1.00
21522;DHT22;10922;45.572;10.002;2023-05-10T13:29:52;15.70;99.90
21522;DHT22;10922;45.572;10.002;2023-05-10T13:32:18;15.30;99.90
21522;DHT22;10922;45.572;10.002;2023-05-10T13:34:44;15.30;99.90
21522;DHT22;10922;45.572;10.002;2023-05-10T13:37:10;15.20;99.90
21522;DHT22;10922;45.572;10.002;2023-05-10T13:39:35;15.40;99.90
21522;DHT22;10922;45.572;10.002;2023-05-10T13:42:03;15.20;99.90
21522;DHT22;10922;45.572;10.002;2023-05-10T13:44:29;15.10;99.90
21522;DHT22;10922;45.572;10.002;2023-05-10T13:46:56;14.90;1.00
21522;DHT22;10922;45.572;10.002;2023-05-10T13:49:21;14.90;1.00
21522;DHT22;10922;45.572;10.002;2023-05-10T13:51:47;14.90;1.00
21522;DHT22;10922;45.572;10.002;2023-05-10T13:54:13;14.70;1.00
21522;DHT22;10922;45.572;10.002;2023-05-10T13:56:39;14.60;1.00
21522;DHT22;10922;45.572;10.002;2023-05-10T13:59:06;14.60;1.00
21522;DHT22;10922;45.572;10.002;2023-05-10T14:01:33;14.60;1.00
21522;DHT22;10922;45.572;10.002;2023-05-10T14:03:59;14.60;1.00
21522;DHT22;10922;45.572;10.002;2023-05-10T14:06:25;14.70;1.00
21522;DHT22;10922;45.572;10.002;2023-05-10T14:08:52;14.50;1.00
21522;DHT22;10922;45.572;10.002;2023-05-10T14:11:19;14.50;1.00
21522;DHT22;10922;45.572;10.002;2023-05-10T14:13:44;14.30;1.00
21522;DHT22;10922;45.572;10.002;2023-05-10T14:16:10;14.40;1.00
21522;DHT22;10922;45.572;10.002;2023-05-10T14:18:37;14.50;1.00
21522;DHT22;10922;45.572;10.002;2023-05-10T14:21:03;14.70;1.00
21522;DHT22;10922;45.572;10.002;2023-05-10T14:23:29;14.80;1.00
21522;DHT22;10922;45.572;10.002;2023-05-10T14:25:55;14.80;1.00
21522;DHT22;10922;45.572;10.002;2023-05-10T14:28:21;14.80;1.00
21522;DHT22;10922;45.572;10.002;2023-05-10T14:30:48;14.80;1.00
21522;DHT22;10922;45.572;10.002;2023-05-10T14:33:13;14.80;1.00
21522;DHT22;10922;45.572;10.002;2023-05-10T14:35:39;14.90;1.00
21522;DHT22;10922;45.572;10.002;2023-05-10T14:38:05;14.80;1.00
21522;DHT22;10922;45.572;10.002;2023-05-10T14:40:31;14.80;1.00
21522;DHT22;10922;45.572;10.002;2023-05-10T14:42:56;14.80;1.00
21522;DHT22;10922;45.572;10.002;2023-05-10T14:45:23;14.90;1.00
21522;DHT22;10922;45.572;10.002;2023-05-10T14:47:49;15.00;1.00
21522;DHT22;10922;45.572;10.002;2023-05-10T14:50:15;15.00;1.00
21522;DHT22;10922;45.572;10.002;2023-05-10T14:52:42;14.90;1.00
21522;DHT22;10922;45.572;10.002;2023-05-10T14:55:08;15.00;1.00
21522;DHT22;10922;45.572;10.002;2023-05-10T14:57:34;15.00;1.00
21522;DHT22;10922;45.572;10.002;2023-05-10T14:59:59;15.00;1.00
21522;DHT22;10922;45.572;10.002;2023-05-10T15:02:25;15.10;1.00
21522;DHT22;10922;45.572;10.002;2023-05-10T15:04:51;15.30;1.00
21522;DHT22;10922;45.572;10.002;2023-05-10T15:07:17;15.20;1.00
21522;DHT22;10922;45.572;10.002;2023-05-10T15:09:46;15.40;1.00
21522;DHT22;10922;45.572;10.002;2023-05-10T15:12:12;15.60;1.00
21522;DHT22;10922;45.572;10.002;2023-05-10T15:14:38;15.90;1.00
21522;DHT22;10922;45.572;10.002;2023-05-10T15:17:06;15.90;1.00
21522;DHT22;10922;45.572;10.002;2023-05-10T15:19:32;15.60;1.00
21522;DHT22;10922;45.572;10.002;2023-05-10T15:21:58;15.60;1.00
21522;DHT22;10922;45.572;10.002;2023-05-10T15:24:25;15.70;1.00
21522;DHT22;10922;45.572;10.002;2023-05-10T15:26:50;15.90;99.90
21522;DHT22;10922;45.572;10.002;2023-05-10T15:29:16;15.80;1.00
21522;DHT22;10922;45.572;10.002;2023-05-10T15:31:51;15.80;99.90
21522;DHT22;10922;45.572;10.002;2023-05-10T15:34:17;15.90;99.90
21522;DHT22;10922;45.572;10.002;2023-05-10T15:36:43;15.90;99.90
21522;DHT22;10922;45.572;10.002;2023-05-10T15:39:10;15.80;99.90
21522;DHT22;10922;45.572;10.002;2023-05-10T15:41:36;15.90;99.90
21522;DHT22;10922;45.572;10.002;2023-05-10T15:44:01;16.20;99.90
21522;DHT22;10922;45.572;10.002;2023-05-10T15:46:28;16.30;99.90
21522;DHT22;10922;45.572;10.002;2023-05-10T15:48:54;16.40;99.90
21522;DHT22;10922;45.572;10.002;2023-05-10T15:51:20;16.40;99.90
21522;DHT22;10922;45.572;10.002;2023-05-10T15:53:46;16.40;99.90
21522;DHT22;10922;45.572;10.002;2023-05-10T15:56:11;16.90;99.90
21522;DHT22;10922;45.572;10.002;2023-05-10T15:58:38;17.10;99.90
21522;DHT22;10922;45.572;10.002;2023-05-10T16:01:04;17.20;99.90
21522;DHT22;10922;45.572;10.002;2023-05-10T16:03:33;17.40;99.90
21522;DHT22;10922;45.572;10.002;2023-05-10T16:05:59;17.40;99.90
21522;DHT22;10922;45.572;10.002;2023-05-10T16:08:25;17.30;99.90
21522;DHT22;10922;45.572;10.002;2023-05-10T16:10:51;17.10;99.90